sensor_id;sensor_type;location;lat;lon;timestamp;P1;durP1;ratioP1;P2;durP2;ratioP2
12925;SDS011;6529;50.566;9.774;2023-02-01T00:01:47;4.40;;;2.63;;
12925;SDS011;6529;50.566;9.774;2023-02-01T00:04:13;5.13;;;2.87;;
12925;SDS011;6529;50.566;9.774;2023-02-01T00:06:38;6.10;;;3.70;;
12925;SDS011;6529;50.566;9.774;2023-02-01T00:09:04;5.80;;;4.50;;
12925;SDS011;6529;50.566;9.774;2023-02-01T00:11:30;5.43;;;3.80;;
12925;SDS011;6529;50.566;9.774;2023-02-01T00:13:56;6.37;;;4.07;;
12925;SDS011;6529;50.566;9.774;2023-02-01T00:16:26;5.47;;;3.63;;
12925;SDS011;6529;50.566;9.774;2023-02-01T00:19:01;4.63;;;3.70;;
12925;SDS011;6529;50.566;9.774;2023-02-01T00:21:36;4.60;;;4.10;;
12925;SDS011;6529;50.566;9.774;2023-02-01T00:24:02;6.70;;;4.20;;
12925;SDS011;6529;50.566;9.774;2023-02-01T00:26:32;6.90;;;4.37;;
12925;SDS011;6529;50.566;9.774;2023-02-01T00:29:00;5.40;;;4.30;;
12925;SDS011;6529;50.566;9.774;2023-02-01T00:31:26;7.53;;;4.90;;
12925;SDS011;6529;50.566;9.774;2023-02-01T00:33:52;5.93;;;4.47;;
12925;SDS011;6529;50.566;9.774;2023-02-01T00:36:18;6.10;;;3.80;;
12925;SDS011;6529;50.566;9.774;2023-02-01T00:38:44;7.07;;;3.97;;
12925;SDS011;6529;50.566;9.774;2023-02-01T00:41:14;6.90;;;3.67;;
12925;SDS011;6529;50.566;9.774;2023-02-01T00:43:42;5.63;;;3.47;;
12925;SDS011;6529;50.566;9.774;2023-02-01T00:46:08;5.03;;;3.70;;
12925;SDS011;6529;50.566;9.774;2023-02-01T00:48:34;5.53;;;3.53;;
12925;SDS011;6529;50.566;9.774;2023-02-01T00:51:00;6.60;;;3.80;;
12925;SDS011;6529;50.566;9.774;2023-02-01T00:53:26;7.53;;;3.83;;
12925;SDS011;6529;50.566;9.774;2023-02-01T00:55:52;8.10;;;3.93;;
12925;SDS011;6529;50.566;9.774;2023-02-01T00:58:17;7.00;;;3.73;;
12925;SDS011;6529;50.566;9.774;2023-02-01T01:00:43;6.77;;;3.53;;
12925;SDS011;6529;50.566;9.774;2023-02-01T01:03:09;4.57;;;3.80;;
12925;SDS011;6529;50.566;9.774;2023-02-01T01:05:44;5.70;;;4.33;;
12925;SDS011;6529;50.566;9.774;2023-02-01T01:08:10;7.93;;;3.53;;
12925;SDS011;6529;50.566;9.774;2023-02-01T01:10:36;5.97;;;3.70;;
12925;SDS011;6529;50.566;9.774;2023-02-01T01:13:01;8.73;;;4.00;;
12925;SDS011;6529;50.566;9.774;2023-02-01T01:15:27;6.97;;;3.40;;
12925;SDS011;6529;50.566;9.774;2023-02-01T01:17:52;9.57;;;3.63;;
12925;SDS011;6529;50.566;9.774;2023-02-01T01:20:18;6.33;;;4.00;;
12925;SDS011;6529;50.566;9.774;2023-02-01T01:22:46;6.30;;;3.97;;
12925;SDS011;6529;50.566;9.774;2023-02-01T01:25:12;6.00;;;3.27;;
12925;SDS011;6529;50.566;9.774;2023-02-01T01:27:38;8.57;;;4.10;;
12925;SDS011;6529;50.566;9.774;2023-02-01T01:30:04;7.10;;;3.57;;
12925;SDS011;6529;50.566;9.774;2023-02-01T01:32:30;6.30;;;3.83;;
12925;SDS011;6529;50.566;9.774;2023-02-01T01:34:55;5.17;;;3.70;;
12925;SDS011;6529;50.566;9.774;2023-02-01T01:37:21;7.70;;;3.97;;
12925;SDS011;6529;50.566;9.774;2023-02-01T01:39:46;7.40;;;4.30;;
12925;SDS011;6529;50.566;9.774;2023-02-01T01:42:12;5.93;;;3.87;;
12925;SDS011;6529;50.566;9.774;2023-02-01T01:47:48;7.77;;;4.53;;
12925;SDS011;6529;50.566;9.774;2023-02-01T01:50:18;5.10;;;4.30;;
12925;SDS011;6529;50.566;9.774;2023-02-01T01:52:51;10.27;;;4.80;;
12925;SDS011;6529;50.566;9.774;2023-02-01T01:55:20;7.07;;;4.43;;
12925;SDS011;6529;50.566;9.774;2023-02-01T01:58:08;9.50;;;5.60;;
12925;SDS011;6529;50.566;9.774;2023-02-01T02:00:37;7.80;;;5.13;;
12925;SDS011;6529;50.566;9.774;2023-02-01T02:03:05;7.00;;;5.20;;
12925;SDS011;6529;50.566;9.774;2023-02-01T02:05:38;8.87;;;5.33;;
12925;SDS011;6529;50.566;9.774;2023-02-01T02:08:03;8.37;;;5.37;;
12925;SDS011;6529;50.566;9.774;2023-02-01T02:10:29;9.77;;;6.17;;
12925;SDS011;6529;50.566;9.774;2023-02-01T02:13:14;9.37;;;5.37;;
12925;SDS011;6529;50.566;9.774;2023-02-01T02:16:00;7.67;;;5.40;;
12925;SDS011;6529;50.566;9.774;2023-02-01T02:18:44;8.80;;;5.40;;
12925;SDS011;6529;50.566;9.774;2023-02-01T02:26:56;10.63;;;5.47;;
12925;SDS011;6529;50.566;9.774;2023-02-01T02:32:08;8.30;;;5.23;;
12925;SDS011;6529;50.566;9.774;2023-02-01T02:38:12;7.13;;;5.50;;
12925;SDS011;6529;50.566;9.774;2023-02-01T02:41:19;10.77;;;5.80;;
12925;SDS011;6529;50.566;9.774;2023-02-01T02:44:23;10.20;;;5.73;;
12925;SDS011;6529;50.566;9.774;2023-02-01T02:47:31;8.50;;;5.40;;
12925;SDS011;6529;50.566;9.774;2023-02-01T02:50:23;9.63;;;5.77;;
12925;SDS011;6529;50.566;9.774;2023-02-01T02:53:16;11.77;;;5.63;;
12925;SDS011;6529;50.566;9.774;2023-02-01T02:56:05;8.50;;;5.20;;
12925;SDS011;6529;50.566;9.774;2023-02-01T02:58:51;11.37;;;5.87;;
12925;SDS011;6529;50.566;9.774;2023-02-01T03:01:37;7.87;;;5.03;;
12925;SDS011;6529;50.566;9.774;2023-02-01T03:04:23;8.80;;;5.90;;
12925;SDS011;6529;50.566;9.774;2023-02-01T03:06:51;10.30;;;5.40;;
12925;SDS011;6529;50.566;9.774;2023-02-01T03:11:49;7.70;;;5.00;;
12925;SDS011;6529;50.566;9.774;2023-02-01T03:14:40;12.20;;;5.70;;
12925;SDS011;6529;50.566;9.774;2023-02-01T03:17:11;10.23;;;5.73;;
12925;SDS011;6529;50.566;9.774;2023-02-01T03:19:42;8.00;;;5.30;;
12925;SDS011;6529;50.566;9.774;2023-02-01T03:22:15;7.97;;;5.40;;
12925;SDS011;6529;50.566;9.774;2023-02-01T03:32:23;9.00;;;5.50;;
12925;SDS011;6529;50.566;9.774;2023-02-01T03:34:49;8.23;;;5.60;;
12925;SDS011;6529;50.566;9.774;2023-02-01T03:37:21;6.80;;;5.43;;
12925;SDS011;6529;50.566;9.774;2023-02-01T03:42:38;7.33;;;4.93;;
12925;SDS011;6529;50.566;9.774;2023-02-01T03:45:10;10.20;;;4.10;;
12925;SDS011;6529;50.566;9.774;2023-02-01T03:47:40;4.73;;;3.60;;
12925;SDS011;6529;50.566;9.774;2023-02-01T03:50:10;9.70;;;4.20;;
12925;SDS011;6529;50.566;9.774;2023-02-01T03:55:10;9.50;;;4.27;;
12925;SDS011;6529;50.566;9.774;2023-02-01T03:57:41;8.73;;;5.20;;
12925;SDS011;6529;50.566;9.774;2023-02-01T04:00:20;11.60;;;4.53;;
12925;SDS011;6529;50.566;9.774;2023-02-01T04:02:48;10.43;;;4.40;;
12925;SDS011;6529;50.566;9.774;2023-02-01T04:05:14;6.83;;;4.43;;
12925;SDS011;6529;50.566;9.774;2023-02-01T04:07:40;8.40;;;4.23;;
12925;SDS011;6529;50.566;9.774;2023-02-01T04:10:06;8.70;;;4.83;;
12925;SDS011;6529;50.566;9.774;2023-02-01T04:12:32;7.67;;;4.40;;
12925;SDS011;6529;50.566;9.774;2023-02-01T04:14:57;8.47;;;4.27;;
12925;SDS011;6529;50.566;9.774;2023-02-01T04:17:23;8.83;;;4.37;;
12925;SDS011;6529;50.566;9.774;2023-02-01T04:19:49;9.87;;;4.53;;
12925;SDS011;6529;50.566;9.774;2023-02-01T04:22:14;11.17;;;4.67;;
12925;SDS011;6529;50.566;9.774;2023-02-01T04:24:40;8.03;;;4.43;;
12925;SDS011;6529;50.566;9.774;2023-02-01T04:27:06;8.13;;;4.80;;
12925;SDS011;6529;50.566;9.774;2023-02-01T04:29:31;8.17;;;4.17;;
12925;SDS011;6529;50.566;9.774;2023-02-01T04:31:57;9.13;;;4.57;;
12925;SDS011;6529;50.566;9.774;2023-02-01T04:34:22;8.07;;;4.63;;
12925;SDS011;6529;50.566;9.774;2023-02-01T04:36:49;10.47;;;4.53;;
12925;SDS011;6529;50.566;9.774;2023-02-01T04:39:15;6.90;;;4.00;;
12925;SDS011;6529;50.566;9.774;2023-02-01T04:41:41;8.37;;;3.87;;
12925;SDS011;6529;50.566;9.774;2023-02-01T04:44:08;7.87;;;4.30;;
12925;SDS011;6529;50.566;9.774;2023-02-01T04:46:38;9.93;;;4.60;;
12925;SDS011;6529;50.566;9.774;2023-02-01T04:49:03;7.77;;;4.80;;
12925;SDS011;6529;50.566;9.774;2023-02-01T04:51:29;12.47;;;5.23;;
12925;SDS011;6529;50.566;9.774;2023-02-01T04:53:55;10.43;;;4.97;;
12925;SDS011;6529;50.566;9.774;2023-02-01T04:56:21;9.57;;;4.33;;
12925;SDS011;6529;50.566;9.774;2023-02-01T04:58:46;8.57;;;4.30;;
12925;SDS011;6529;50.566;9.774;2023-02-01T05:01:12;8.13;;;4.73;;
12925;SDS011;6529;50.566;9.774;2023-02-01T05:03:37;7.97;;;4.60;;
12925;SDS011;6529;50.566;9.774;2023-02-01T05:06:03;8.37;;;4.23;;
12925;SDS011;6529;50.566;9.774;2023-02-01T05:08:29;8.80;;;4.30;;
12925;SDS011;6529;50.566;9.774;2023-02-01T05:10:56;7.53;;;4.20;;
12925;SDS011;6529;50.566;9.774;2023-02-01T05:13:21;5.53;;;3.70;;
12925;SDS011;6529;50.566;9.774;2023-02-01T05:16:05;10.33;;;4.40;;
12925;SDS011;6529;50.566;9.774;2023-02-01T05:18:31;10.50;;;4.23;;
12925;SDS011;6529;50.566;9.774;2023-02-01T05:20:57;6.77;;;4.03;;
12925;SDS011;6529;50.566;9.774;2023-02-01T05:23:23;9.70;;;4.23;;
12925;SDS011;6529;50.566;9.774;2023-02-01T05:25:48;7.30;;;3.77;;
12925;SDS011;6529;50.566;9.774;2023-02-01T05:28:14;9.83;;;4.30;;
12925;SDS011;6529;50.566;9.774;2023-02-01T05:30:39;9.13;;;4.13;;
12925;SDS011;6529;50.566;9.774;2023-02-01T05:33:05;9.57;;;3.67;;
12925;SDS011;6529;50.566;9.774;2023-02-01T05:35:30;9.17;;;3.87;;
12925;SDS011;6529;50.566;9.774;2023-02-01T05:37:56;8.17;;;3.97;;
12925;SDS011;6529;50.566;9.774;2023-02-01T05:40:21;7.60;;;3.80;;
12925;SDS011;6529;50.566;9.774;2023-02-01T05:42:47;9.90;;;3.70;;
12925;SDS011;6529;50.566;9.774;2023-02-01T05:45:13;11.47;;;4.17;;
12925;SDS011;6529;50.566;9.774;2023-02-01T05:47:38;7.43;;;3.30;;
12925;SDS011;6529;50.566;9.774;2023-02-01T05:50:04;5.93;;;3.20;;
12925;SDS011;6529;50.566;9.774;2023-02-01T05:52:30;8.10;;;3.43;;
12925;SDS011;6529;50.566;9.774;2023-02-01T05:54:57;7.43;;;3.40;;
12925;SDS011;6529;50.566;9.774;2023-02-01T05:57:22;9.40;;;3.20;;
12925;SDS011;6529;50.566;9.774;2023-02-01T05:59:48;6.10;;;2.77;;
12925;SDS011;6529;50.566;9.774;2023-02-01T06:02:14;7.67;;;3.43;;
12925;SDS011;6529;50.566;9.774;2023-02-01T06:04:40;9.33;;;3.50;;
12925;SDS011;6529;50.566;9.774;2023-02-01T06:07:06;6.63;;;3.03;;
12925;SDS011;6529;50.566;9.774;2023-02-01T06:09:33;9.43;;;3.03;;
12925;SDS011;6529;50.566;9.774;2023-02-01T06:11:59;6.77;;;3.27;;
12925;SDS011;6529;50.566;9.774;2023-02-01T06:14:26;8.83;;;2.90;;
12925;SDS011;6529;50.566;9.774;2023-02-01T06:16:52;7.23;;;3.20;;
12925;SDS011;6529;50.566;9.774;2023-02-01T06:19:21;11.50;;;3.43;;
12925;SDS011;6529;50.566;9.774;2023-02-01T06:21:47;8.43;;;2.87;;
12925;SDS011;6529;50.566;9.774;2023-02-01T06:24:13;5.73;;;2.93;;
12925;SDS011;6529;50.566;9.774;2023-02-01T06:26:39;9.73;;;3.00;;
12925;SDS011;6529;50.566;9.774;2023-02-01T06:29:06;6.27;;;2.80;;
12925;SDS011;6529;50.566;9.774;2023-02-01T06:31:32;9.23;;;3.00;;
12925;SDS011;6529;50.566;9.774;2023-02-01T06:33:58;12.70;;;4.20;;
12925;SDS011;6529;50.566;9.774;2023-02-01T06:36:24;8.67;;;3.20;;
12925;SDS011;6529;50.566;9.774;2023-02-01T06:38:49;12.30;;;3.00;;
12925;SDS011;6529;50.566;9.774;2023-02-01T06:41:15;8.93;;;2.50;;
12925;SDS011;6529;50.566;9.774;2023-02-01T06:43:41;8.10;;;3.37;;
12925;SDS011;6529;50.566;9.774;2023-02-01T06:46:08;7.70;;;2.70;;
12925;SDS011;6529;50.566;9.774;2023-02-01T06:48:36;8.37;;;3.90;;
12925;SDS011;6529;50.566;9.774;2023-02-01T06:51:01;8.23;;;3.70;;
12925;SDS011;6529;50.566;9.774;2023-02-01T06:53:27;8.40;;;3.43;;
12925;SDS011;6529;50.566;9.774;2023-02-01T06:55:53;7.97;;;4.13;;
12925;SDS011;6529;50.566;9.774;2023-02-01T06:58:20;6.27;;;3.20;;
12925;SDS011;6529;50.566;9.774;2023-02-01T07:00:46;7.23;;;2.67;;
12925;SDS011;6529;50.566;9.774;2023-02-01T07:03:12;8.03;;;3.30;;
12925;SDS011;6529;50.566;9.774;2023-02-01T07:05:37;9.40;;;3.20;;
12925;SDS011;6529;50.566;9.774;2023-02-01T07:08:03;11.80;;;3.33;;
12925;SDS011;6529;50.566;9.774;2023-02-01T07:10:28;9.23;;;2.90;;
12925;SDS011;6529;50.566;9.774;2023-02-01T07:12:56;7.87;;;3.40;;
12925;SDS011;6529;50.566;9.774;2023-02-01T07:15:22;7.47;;;3.37;;
12925;SDS011;6529;50.566;9.774;2023-02-01T07:17:48;7.03;;;3.10;;
12925;SDS011;6529;50.566;9.774;2023-02-01T07:20:14;6.73;;;3.20;;
12925;SDS011;6529;50.566;9.774;2023-02-01T07:22:40;8.00;;;2.77;;
12925;SDS011;6529;50.566;9.774;2023-02-01T07:25:06;6.77;;;3.10;;
12925;SDS011;6529;50.566;9.774;2023-02-01T07:27:35;8.87;;;3.17;;
12925;SDS011;6529;50.566;9.774;2023-02-01T07:30:01;7.97;;;3.23;;
12925;SDS011;6529;50.566;9.774;2023-02-01T07:32:27;7.43;;;3.50;;
12925;SDS011;6529;50.566;9.774;2023-02-01T07:34:56;9.00;;;2.90;;
12925;SDS011;6529;50.566;9.774;2023-02-01T07:37:22;10.87;;;3.57;;
12925;SDS011;6529;50.566;9.774;2023-02-01T07:39:49;7.00;;;3.30;;
12925;SDS011;6529;50.566;9.774;2023-02-01T07:42:15;5.77;;;2.43;;
12925;SDS011;6529;50.566;9.774;2023-02-01T07:44:40;7.83;;;2.50;;
12925;SDS011;6529;50.566;9.774;2023-02-01T07:47:06;6.90;;;2.90;;
12925;SDS011;6529;50.566;9.774;2023-02-01T07:49:31;8.93;;;3.07;;
12925;SDS011;6529;50.566;9.774;2023-02-01T07:51:57;6.40;;;2.50;;
12925;SDS011;6529;50.566;9.774;2023-02-01T07:54:23;10.33;;;3.07;;
12925;SDS011;6529;50.566;9.774;2023-02-01T07:56:48;8.17;;;3.17;;
12925;SDS011;6529;50.566;9.774;2023-02-01T07:59:14;12.77;;;3.00;;
12925;SDS011;6529;50.566;9.774;2023-02-01T08:01:40;7.20;;;2.93;;
12925;SDS011;6529;50.566;9.774;2023-02-01T08:04:07;6.00;;;2.77;;
12925;SDS011;6529;50.566;9.774;2023-02-01T08:06:36;7.83;;;3.40;;
12925;SDS011;6529;50.566;9.774;2023-02-01T08:09:02;6.63;;;3.17;;
12925;SDS011;6529;50.566;9.774;2023-02-01T08:11:28;17.60;;;3.57;;
12925;SDS011;6529;50.566;9.774;2023-02-01T08:13:54;10.03;;;3.53;;
12925;SDS011;6529;50.566;9.774;2023-02-01T08:16:20;7.73;;;3.10;;
12925;SDS011;6529;50.566;9.774;2023-02-01T08:18:46;9.50;;;3.23;;
12925;SDS011;6529;50.566;9.774;2023-02-01T08:21:12;13.13;;;3.70;;
12925;SDS011;6529;50.566;9.774;2023-02-01T08:23:40;5.93;;;3.00;;
12925;SDS011;6529;50.566;9.774;2023-02-01T08:28:57;9.77;;;3.67;;
12925;SDS011;6529;50.566;9.774;2023-02-01T08:31:25;7.50;;;2.93;;
12925;SDS011;6529;50.566;9.774;2023-02-01T08:33:56;12.30;;;3.37;;
12925;SDS011;6529;50.566;9.774;2023-02-01T08:36:23;8.33;;;3.83;;
12925;SDS011;6529;50.566;9.774;2023-02-01T08:38:50;8.50;;;3.23;;
12925;SDS011;6529;50.566;9.774;2023-02-01T08:41:17;12.53;;;3.43;;
12925;SDS011;6529;50.566;9.774;2023-02-01T08:43:45;9.67;;;3.03;;
12925;SDS011;6529;50.566;9.774;2023-02-01T08:46:12;8.33;;;3.23;;
12925;SDS011;6529;50.566;9.774;2023-02-01T08:48:38;10.13;;;3.60;;
12925;SDS011;6529;50.566;9.774;2023-02-01T08:51:05;11.80;;;3.57;;
12925;SDS011;6529;50.566;9.774;2023-02-01T08:53:33;10.30;;;2.97;;
12925;SDS011;6529;50.566;9.774;2023-02-01T08:56:00;8.77;;;3.37;;
12925;SDS011;6529;50.566;9.774;2023-02-01T08:58:26;7.33;;;3.40;;
12925;SDS011;6529;50.566;9.774;2023-02-01T09:00:52;8.50;;;3.63;;
12925;SDS011;6529;50.566;9.774;2023-02-01T09:03:17;10.60;;;3.30;;
12925;SDS011;6529;50.566;9.774;2023-02-01T09:05:43;9.03;;;3.53;;
12925;SDS011;6529;50.566;9.774;2023-02-01T09:08:10;5.93;;;2.43;;
12925;SDS011;6529;50.566;9.774;2023-02-01T09:10:38;10.60;;;3.97;;
12925;SDS011;6529;50.566;9.774;2023-02-01T09:13:04;5.97;;;3.47;;
12925;SDS011;6529;50.566;9.774;2023-02-01T09:15:30;8.57;;;3.70;;
12925;SDS011;6529;50.566;9.774;2023-02-01T09:17:55;7.73;;;3.83;;
12925;SDS011;6529;50.566;9.774;2023-02-01T09:20:21;8.07;;;3.87;;
12925;SDS011;6529;50.566;9.774;2023-02-01T09:22:49;9.83;;;4.43;;
12925;SDS011;6529;50.566;9.774;2023-02-01T09:25:16;7.20;;;3.23;;
12925;SDS011;6529;50.566;9.774;2023-02-01T09:27:42;7.67;;;2.73;;
12925;SDS011;6529;50.566;9.774;2023-02-01T09:30:07;9.23;;;3.27;;
12925;SDS011;6529;50.566;9.774;2023-02-01T09:32:33;6.73;;;3.60;;
12925;SDS011;6529;50.566;9.774;2023-02-01T09:35:00;9.97;;;3.87;;
12925;SDS011;6529;50.566;9.774;2023-02-01T09:37:26;9.43;;;3.43;;
12925;SDS011;6529;50.566;9.774;2023-02-01T09:39:51;7.57;;;3.57;;
12925;SDS011;6529;50.566;9.774;2023-02-01T09:45:22;8.70;;;4.33;;
12925;SDS011;6529;50.566;9.774;2023-02-01T09:47:58;6.73;;;3.60;;
12925;SDS011;6529;50.566;9.774;2023-02-01T09:50:31;6.03;;;3.20;;
12925;SDS011;6529;50.566;9.774;2023-02-01T09:53:02;9.57;;;3.80;;
12925;SDS011;6529;50.566;9.774;2023-02-01T09:55:39;12.30;;;3.53;;
12925;SDS011;6529;50.566;9.774;2023-02-01T09:58:14;7.90;;;3.53;;
12925;SDS011;6529;50.566;9.774;2023-02-01T10:00:50;7.00;;;3.10;;
12925;SDS011;6529;50.566;9.774;2023-02-01T10:03:18;14.80;;;8.17;;
12925;SDS011;6529;50.566;9.774;2023-02-01T10:10:50;4.50;;;2.73;;
12925;SDS011;6529;50.566;9.774;2023-02-01T10:16:06;9.73;;;3.10;;
12925;SDS011;6529;50.566;9.774;2023-02-01T10:26:57;5.37;;;2.90;;
12925;SDS011;6529;50.566;9.774;2023-02-01T10:29:31;10.57;;;3.93;;
12925;SDS011;6529;50.566;9.774;2023-02-01T10:32:08;8.60;;;3.60;;
12925;SDS011;6529;50.566;9.774;2023-02-01T10:34:41;6.60;;;2.90;;
12925;SDS011;6529;50.566;9.774;2023-02-01T10:39:53;11.83;;;3.53;;
12925;SDS011;6529;50.566;9.774;2023-02-01T10:42:23;7.90;;;3.83;;
12925;SDS011;6529;50.566;9.774;2023-02-01T10:44:51;8.10;;;3.63;;
12925;SDS011;6529;50.566;9.774;2023-02-01T10:47:18;11.23;;;4.07;;
12925;SDS011;6529;50.566;9.774;2023-02-01T10:49:47;8.00;;;3.50;;
12925;SDS011;6529;50.566;9.774;2023-02-01T10:52:38;9.93;;;3.97;;
12925;SDS011;6529;50.566;9.774;2023-02-01T10:58:02;9.53;;;3.60;;
12925;SDS011;6529;50.566;9.774;2023-02-01T11:05:57;9.10;;;4.10;;
12925;SDS011;6529;50.566;9.774;2023-02-01T11:08:23;8.63;;;3.90;;
12925;SDS011;6529;50.566;9.774;2023-02-01T11:10:56;9.83;;;3.83;;
12925;SDS011;6529;50.566;9.774;2023-02-01T11:13:31;8.77;;;3.30;;
12925;SDS011;6529;50.566;9.774;2023-02-01T11:16:01;8.37;;;4.00;;
12925;SDS011;6529;50.566;9.774;2023-02-01T11:18:29;8.93;;;3.27;;
12925;SDS011;6529;50.566;9.774;2023-02-01T11:20:56;10.23;;;4.17;;
12925;SDS011;6529;50.566;9.774;2023-02-01T11:23:23;7.93;;;3.50;;
12925;SDS011;6529;50.566;9.774;2023-02-01T11:25:54;10.43;;;3.87;;
12925;SDS011;6529;50.566;9.774;2023-02-01T11:28:31;10.60;;;3.80;;
12925;SDS011;6529;50.566;9.774;2023-02-01T11:31:01;17.70;;;6.53;;
12925;SDS011;6529;50.566;9.774;2023-02-01T11:33:30;19.17;;;6.80;;
12925;SDS011;6529;50.566;9.774;2023-02-01T11:36:00;15.00;;;6.60;;
12925;SDS011;6529;50.566;9.774;2023-02-01T11:38:33;14.97;;;5.70;;
12925;SDS011;6529;50.566;9.774;2023-02-01T11:41:20;13.50;;;4.87;;
12925;SDS011;6529;50.566;9.774;2023-02-01T11:43:55;11.00;;;4.43;;
12925;SDS011;6529;50.566;9.774;2023-02-01T11:46:24;18.70;;;7.33;;
12925;SDS011;6529;50.566;9.774;2023-02-01T12:08:12;12.20;;;5.47;;
12925;SDS011;6529;50.566;9.774;2023-02-01T12:19:30;9.70;;;4.30;;
12925;SDS011;6529;50.566;9.774;2023-02-01T12:22:04;8.53;;;3.67;;
12925;SDS011;6529;50.566;9.774;2023-02-01T12:24:58;11.07;;;3.87;;
12925;SDS011;6529;50.566;9.774;2023-02-01T12:43:53;7.87;;;3.17;;
12925;SDS011;6529;50.566;9.774;2023-02-01T12:46:45;8.30;;;2.70;;
12925;SDS011;6529;50.566;9.774;2023-02-01T12:51:50;12.67;;;2.90;;
12925;SDS011;6529;50.566;9.774;2023-02-01T12:54:31;6.57;;;2.70;;
12925;SDS011;6529;50.566;9.774;2023-02-01T13:02:43;5.50;;;2.50;;
12925;SDS011;6529;50.566;9.774;2023-02-01T13:05:18;8.40;;;2.57;;
12925;SDS011;6529;50.566;9.774;2023-02-01T13:08:02;9.10;;;2.97;;
12925;SDS011;6529;50.566;9.774;2023-02-01T13:10:42;6.70;;;2.70;;
12925;SDS011;6529;50.566;9.774;2023-02-01T13:13:22;6.60;;;2.40;;
12925;SDS011;6529;50.566;9.774;2023-02-01T13:21:49;7.63;;;2.60;;
12925;SDS011;6529;50.566;9.774;2023-02-01T13:26:57;6.73;;;2.10;;
12925;SDS011;6529;50.566;9.774;2023-02-01T13:29:23;8.47;;;2.30;;
12925;SDS011;6529;50.566;9.774;2023-02-01T13:37:19;6.67;;;2.80;;
12925;SDS011;6529;50.566;9.774;2023-02-01T13:43:19;5.90;;;2.70;;
12925;SDS011;6529;50.566;9.774;2023-02-01T13:45:54;6.07;;;2.30;;
12925;SDS011;6529;50.566;9.774;2023-02-01T13:48:28;4.47;;;2.67;;
12925;SDS011;6529;50.566;9.774;2023-02-01T13:50:58;8.97;;;4.10;;
12925;SDS011;6529;50.566;9.774;2023-02-01T13:53:27;7.30;;;2.67;;
12925;SDS011;6529;50.566;9.774;2023-02-01T13:55:59;5.30;;;2.17;;
12925;SDS011;6529;50.566;9.774;2023-02-01T13:58:37;3.17;;;1.67;;
12925;SDS011;6529;50.566;9.774;2023-02-01T14:03:49;4.10;;;2.10;;
12925;SDS011;6529;50.566;9.774;2023-02-01T14:11:48;11.80;;;4.27;;
12925;SDS011;6529;50.566;9.774;2023-02-01T14:16:41;5.77;;;2.83;;
12925;SDS011;6529;50.566;9.774;2023-02-01T14:19:33;11.43;;;4.07;;
12925;SDS011;6529;50.566;9.774;2023-02-01T14:24:53;11.17;;;3.77;;
12925;SDS011;6529;50.566;9.774;2023-02-01T14:27:21;13.83;;;5.20;;
12925;SDS011;6529;50.566;9.774;2023-02-01T14:30:00;12.90;;;4.13;;
12925;SDS011;6529;50.566;9.774;2023-02-01T14:32:39;11.30;;;5.47;;
12925;SDS011;6529;50.566;9.774;2023-02-01T14:37:52;11.37;;;4.47;;
12925;SDS011;6529;50.566;9.774;2023-02-01T14:40:24;16.30;;;5.90;;
12925;SDS011;6529;50.566;9.774;2023-02-01T14:42:52;13.30;;;5.07;;
12925;SDS011;6529;50.566;9.774;2023-02-01T14:55:35;13.73;;;5.33;;
12925;SDS011;6529;50.566;9.774;2023-02-01T14:58:05;9.50;;;3.67;;
12925;SDS011;6529;50.566;9.774;2023-02-01T15:00:41;8.70;;;4.40;;
12925;SDS011;6529;50.566;9.774;2023-02-01T15:08:58;8.77;;;3.20;;
12925;SDS011;6529;50.566;9.774;2023-02-01T15:11:27;8.70;;;3.57;;
12925;SDS011;6529;50.566;9.774;2023-02-01T15:13:53;7.83;;;2.83;;
12925;SDS011;6529;50.566;9.774;2023-02-01T15:16:22;7.30;;;3.33;;
12925;SDS011;6529;50.566;9.774;2023-02-01T15:18:49;4.87;;;2.50;;
12925;SDS011;6529;50.566;9.774;2023-02-01T15:21:16;8.37;;;2.97;;
12925;SDS011;6529;50.566;9.774;2023-02-01T15:23:50;8.23;;;2.90;;
12925;SDS011;6529;50.566;9.774;2023-02-01T15:26:26;5.10;;;2.27;;
12925;SDS011;6529;50.566;9.774;2023-02-01T15:28:53;7.90;;;2.80;;
12925;SDS011;6529;50.566;9.774;2023-02-01T15:31:30;6.00;;;2.33;;
12925;SDS011;6529;50.566;9.774;2023-02-01T15:34:01;9.90;;;3.90;;
12925;SDS011;6529;50.566;9.774;2023-02-01T15:36:27;6.97;;;2.50;;
12925;SDS011;6529;50.566;9.774;2023-02-01T15:41:49;9.97;;;3.40;;
12925;SDS011;6529;50.566;9.774;2023-02-01T15:46:59;9.17;;;3.70;;
12925;SDS011;6529;50.566;9.774;2023-02-01T15:49:31;9.30;;;2.53;;
12925;SDS011;6529;50.566;9.774;2023-02-01T15:52:01;11.17;;;2.77;;
12925;SDS011;6529;50.566;9.774;2023-02-01T15:54:32;5.50;;;2.20;;
12925;SDS011;6529;50.566;9.774;2023-02-01T15:57:07;5.80;;;2.10;;
12925;SDS011;6529;50.566;9.774;2023-02-01T15:59:43;8.03;;;2.50;;
12925;SDS011;6529;50.566;9.774;2023-02-01T16:04:55;5.03;;;2.43;;
12925;SDS011;6529;50.566;9.774;2023-02-01T16:07:28;3.20;;;2.00;;
12925;SDS011;6529;50.566;9.774;2023-02-01T16:09:57;7.53;;;3.03;;
12925;SDS011;6529;50.566;9.774;2023-02-01T16:14:55;7.27;;;2.60;;
12925;SDS011;6529;50.566;9.774;2023-02-01T16:17:20;2.90;;;2.07;;
12925;SDS011;6529;50.566;9.774;2023-02-01T16:19:46;6.03;;;2.00;;
12925;SDS011;6529;50.566;9.774;2023-02-01T16:22:11;4.93;;;2.43;;
12925;SDS011;6529;50.566;9.774;2023-02-01T16:24:37;2.83;;;1.50;;
12925;SDS011;6529;50.566;9.774;2023-02-01T16:27:02;4.57;;;1.80;;
12925;SDS011;6529;50.566;9.774;2023-02-01T16:29:30;2.93;;;1.50;;
12925;SDS011;6529;50.566;9.774;2023-02-01T16:31:55;2.77;;;1.53;;
12925;SDS011;6529;50.566;9.774;2023-02-01T16:34:21;5.07;;;2.23;;
12925;SDS011;6529;50.566;9.774;2023-02-01T16:36:47;3.50;;;2.10;;
12925;SDS011;6529;50.566;9.774;2023-02-01T16:39:16;3.83;;;1.93;;
12925;SDS011;6529;50.566;9.774;2023-02-01T16:41:42;3.10;;;1.73;;
12925;SDS011;6529;50.566;9.774;2023-02-01T16:44:10;5.90;;;2.63;;
12925;SDS011;6529;50.566;9.774;2023-02-01T16:46:38;5.43;;;2.00;;
12925;SDS011;6529;50.566;9.774;2023-02-01T16:49:05;3.37;;;1.57;;
12925;SDS011;6529;50.566;9.774;2023-02-01T16:51:56;5.70;;;2.10;;
12925;SDS011;6529;50.566;9.774;2023-02-01T16:54:23;3.77;;;1.87;;
12925;SDS011;6529;50.566;9.774;2023-02-01T16:56:49;4.63;;;2.20;;
12925;SDS011;6529;50.566;9.774;2023-02-01T16:59:15;2.07;;;1.63;;
12925;SDS011;6529;50.566;9.774;2023-02-01T17:01:41;2.57;;;1.80;;
12925;SDS011;6529;50.566;9.774;2023-02-01T17:04:08;4.00;;;2.10;;
12925;SDS011;6529;50.566;9.774;2023-02-01T17:06:34;2.10;;;1.57;;
12925;SDS011;6529;50.566;9.774;2023-02-01T17:09:04;5.23;;;2.53;;
12925;SDS011;6529;50.566;9.774;2023-02-01T17:11:30;4.73;;;2.17;;
12925;SDS011;6529;50.566;9.774;2023-02-01T17:13:56;6.40;;;2.53;;
12925;SDS011;6529;50.566;9.774;2023-02-01T17:16:27;4.60;;;2.13;;
12925;SDS011;6529;50.566;9.774;2023-02-01T17:19:05;6.17;;;2.43;;
12925;SDS011;6529;50.566;9.774;2023-02-01T17:21:44;3.07;;;1.80;;
12925;SDS011;6529;50.566;9.774;2023-02-01T17:24:15;3.97;;;1.87;;
12925;SDS011;6529;50.566;9.774;2023-02-01T17:26:42;9.17;;;2.70;;
12925;SDS011;6529;50.566;9.774;2023-02-01T17:29:09;6.67;;;2.27;;
12925;SDS011;6529;50.566;9.774;2023-02-01T17:31:36;5.37;;;2.27;;
12925;SDS011;6529;50.566;9.774;2023-02-01T17:34:04;4.77;;;2.77;;
12925;SDS011;6529;50.566;9.774;2023-02-01T17:36:30;6.43;;;2.80;;
12925;SDS011;6529;50.566;9.774;2023-02-01T17:38:55;5.97;;;2.90;;
12925;SDS011;6529;50.566;9.774;2023-02-01T17:41:21;5.93;;;2.77;;
12925;SDS011;6529;50.566;9.774;2023-02-01T17:43:47;5.57;;;2.30;;
12925;SDS011;6529;50.566;9.774;2023-02-01T17:46:16;6.20;;;2.57;;
12925;SDS011;6529;50.566;9.774;2023-02-01T17:48:42;3.03;;;2.20;;
12925;SDS011;6529;50.566;9.774;2023-02-01T17:51:18;4.73;;;2.60;;
12925;SDS011;6529;50.566;9.774;2023-02-01T17:53:46;8.83;;;2.87;;
12925;SDS011;6529;50.566;9.774;2023-02-01T17:56:16;6.50;;;2.40;;
12925;SDS011;6529;50.566;9.774;2023-02-01T17:58:43;6.60;;;2.67;;
12925;SDS011;6529;50.566;9.774;2023-02-01T18:01:22;8.53;;;3.27;;
12925;SDS011;6529;50.566;9.774;2023-02-01T18:03:49;3.93;;;2.53;;
12925;SDS011;6529;50.566;9.774;2023-02-01T18:06:16;7.13;;;2.80;;
12925;SDS011;6529;50.566;9.774;2023-02-01T18:08:43;6.90;;;2.83;;